Big Bear Station Historical Data
Daily Summary for July 2, 2017 Units:  English    Metric   Both
« Previous Day
Next Day »
Daily Weekly Monthly Yearly Custom
  High: Low: Average:
Temperature: 82.0 °F 49.3 °F 64.9 °F
Dew Point: 46.1 °F 13.8 °F 33.6 °F
Humidity: 68 % 15 % 34 %
Wind Speed: 10.9 mph 0.0 mph 2.4 mph
Wind Gust: -999.0 mph - -
Wind:- - SW
Pressure: 30.30 in 30.18 in -
Precipitation: 0.00 in    
Historical Graphs
 
 
Tabular Data for July 2, 2017
Time Temperature Dew Point Pressure Wind Wind Speed Wind Gust Humidity Rainfall Rate (Hourly)
00:12 60.6 °F 32.1 °F 30.19 in SSE 1.7 mph -999.0 mph 34 % 0 in
00:28 59.9 °F 31.5 °F 30.20 in Calm   -999.0 mph 34 % 0 in
00:43 59.9 °F 30.0 °F 30.19 in Calm   -999.0 mph 32 % 0 in
00:58 60.1 °F 30.1 °F 30.20 in Calm   -999.0 mph 32 % 0 in
01:13 58.6 °F 32.4 °F 30.20 in South 2.2 mph -999.0 mph 37 % 0 in
01:28 57.4 °F 32.0 °F 30.20 in SSE 2.7 mph -999.0 mph 38 % 0 in
01:44 56.8 °F 32.7 °F 30.19 in South 1.7 mph -999.0 mph 40 % 0 in
01:59 56.1 °F 32.7 °F 30.19 in SSE 1.7 mph -999.0 mph 41 % 0 in
02:14 55.4 °F 32.1 °F 30.19 in Calm   -999.0 mph 41 % 0 in
02:29 54.7 °F 31.5 °F 30.19 in Calm   -999.0 mph 41 % 0 in
02:44 54.0 °F 30.8 °F 30.18 in Calm   -999.0 mph 41 % 0 in
03:00 53.4 °F 33.7 °F 30.18 in Calm   -999.0 mph 47 % 0 in
03:15 53.1 °F 33.9 °F 30.18 in Calm   -999.0 mph 48 % 0 in
03:30 52.5 °F 33.4 °F 30.18 in Calm   -999.0 mph 48 % 0 in
03:45 52.0 °F 31.9 °F 30.19 in Calm   -999.0 mph 46 % 0 in
04:01 51.8 °F 33.2 °F 30.19 in Calm   -999.0 mph 49 % 0 in
04:16 51.4 °F 36.7 °F 30.19 in Calm   -999.0 mph 57 % 0 in
04:31 51.3 °F 38.3 °F 30.19 in Calm   -999.0 mph 61 % 0 in
04:46 50.9 °F 39.9 °F 30.20 in Calm   -999.0 mph 66 % 0 in
05:01 50.7 °F 39.4 °F 30.20 in Calm   -999.0 mph 65 % 0 in
05:17 50.2 °F 38.1 °F 30.20 in Calm   -999.0 mph 63 % 0 in
05:32 49.8 °F 36.9 °F 30.21 in Calm   -999.0 mph 61 % 0 in
05:47 49.3 °F 36.0 °F 30.21 in Calm   -999.0 mph 60 % 0 in
06:02 49.6 °F 37.1 °F 30.21 in Calm   -999.0 mph 62 % 0 in
06:17 49.6 °F 36.3 °F 30.21 in Calm   -999.0 mph 60 % 0 in
06:33 49.6 °F 36.3 °F 30.22 in Calm   -999.0 mph 60 % 0 in
06:48 49.6 °F 38.3 °F 30.22 in Calm   -999.0 mph 65 % 0 in
07:03 50.4 °F 39.1 °F 30.22 in Calm   -999.0 mph 65 % 0 in
07:18 50.4 °F 40.2 °F 30.22 in Calm   -999.0 mph 68 % 0 in
07:33 51.8 °F 41.2 °F 30.23 in Calm   -999.0 mph 67 % 0 in
07:49 52.3 °F 42.1 °F 30.23 in Calm   -999.0 mph 68 % 0 in
08:04 56.1 °F 40.2 °F 30.24 in Calm   -999.0 mph 55 % 0 in
08:19 59.2 °F 32.9 °F 30.24 in NE 2.2 mph -999.0 mph 37 % 0 in
08:34 61.3 °F 31.2 °F 30.25 in Calm   -999.0 mph 32 % 0 in
08:49 63.9 °F 31.0 °F 30.25 in WNW 2.2 mph -999.0 mph 29 % 0 in
09:05 65.3 °F 29.5 °F 30.25 in NW 3.2 mph -999.0 mph 26 % 0 in
09:20 66.7 °F 27.7 °F 30.25 in WNW 3.7 mph -999.0 mph 23 % 0 in
09:35 67.8 °F 29.7 °F 30.25 in West 2.2 mph -999.0 mph 24 % 0 in
09:50 68.9 °F 31.6 °F 30.26 in WNW 4.7 mph -999.0 mph 25 % 0 in
10:06 69.6 °F 32.2 °F 30.26 in NNW 3.7 mph -999.0 mph 25 % 0 in
10:21 70.3 °F 32.8 °F 30.26 in NNW 6.3 mph -999.0 mph 25 % 0 in
10:36 70.5 °F 32.0 °F 30.26 in NNW 5.8 mph -999.0 mph 24 % 0 in
10:51 71.4 °F 34.7 °F 30.26 in NNE 4.7 mph -999.0 mph 26 % 0 in
11:06 72.3 °F 35.5 °F 30.27 in NW 5.8 mph -999.0 mph 26 % 0 in
11:22 73.0 °F 36.1 °F 30.27 in NW 4.7 mph -999.0 mph 26 % 0 in
11:37 74.3 °F 36.2 °F 30.27 in NW 4.7 mph -999.0 mph 25 % 0 in
11:52 75.9 °F 34.3 °F 30.28 in West 1.1 mph -999.0 mph 22 % 0 in
12:07 77.9 °F 33.6 °F 30.28 in WNW 8.9 mph -999.0 mph 20 % 0 in
12:22 77.4 °F 35.6 °F 30.28 in NW 6.3 mph -999.0 mph 22 % 0 in
12:38 78.8 °F 35.6 °F 30.28 in NNW 4.7 mph -999.0 mph 21 % 0 in
12:53 79.7 °F 32.4 °F 30.28 in NNW 4.7 mph -999.0 mph 18 % 0 in
13:08 79.7 °F 33.8 °F 30.28 in NNW 5.8 mph -999.0 mph 19 % 0 in
13:24 79.2 °F 32.0 °F 30.28 in ENE 2.7 mph -999.0 mph 18 % 0 in
13:39 80.4 °F 31.6 °F 30.28 in WNW 3.7 mph -999.0 mph 17 % 0 in
13:55 81.3 °F 32.3 °F 30.28 in West 2.2 mph -999.0 mph 17 % 0 in
14:10 80.8 °F 31.9 °F 30.28 in NW 5.3 mph -999.0 mph 17 % 0 in
14:25 80.2 °F 32.9 °F 30.28 in NW 6.3 mph -999.0 mph 18 % 0 in
14:40 82.0 °F 29.8 °F 30.28 in NW 8.3 mph -999.0 mph 15 % 0 in
14:55 81.5 °F 39.0 °F 30.28 in NE 6.8 mph -999.0 mph 22 % 0 in
15:11 79.9 °F 38.8 °F 30.28 in NE 2.7 mph -999.0 mph 23 % 0 in
15:27 80.2 °F 41.2 °F 30.28 in NNW 4.7 mph -999.0 mph 25 % 0 in
15:42 78.6 °F 42.8 °F 30.28 in NNE 2.2 mph -999.0 mph 28 % 0 in
15:57 80.2 °F 43.2 °F 30.28 in WNW 4.2 mph -999.0 mph 27 % 0 in
16:12 79.0 °F 44.9 °F 30.28 in NW 10.9 mph -999.0 mph 30 % 0 in
16:28 78.8 °F 45.6 °F 30.28 in WNW 4.7 mph -999.0 mph 31 % 0 in
16:43 79.3 °F 46.1 °F 30.28 in WNW 8.3 mph -999.0 mph 31 % 0 in
16:58 79.5 °F 42.6 °F 30.28 in SE 3.2 mph -999.0 mph 27 % 0 in
17:13 79.7 °F 39.7 °F 30.28 in WSW 2.2 mph -999.0 mph 24 % 0 in
17:28 81.1 °F 39.8 °F 30.28 in SSW 1.7 mph -999.0 mph 23 % 0 in
17:44 81.0 °F 39.7 °F 30.28 in NNW 3.2 mph -999.0 mph 23 % 0 in
17:59 78.3 °F 32.6 °F 30.28 in South 2.2 mph -999.0 mph 19 % 0 in
18:14 78.6 °F 32.9 °F 30.28 in South 2.2 mph -999.0 mph 19 % 0 in
18:30 76.5 °F 32.4 °F 30.28 in West 3.2 mph -999.0 mph 20 % 0 in
18:45 78.6 °F 34.2 °F 30.28 in NW 4.2 mph -999.0 mph 20 % 0 in
19:01 78.1 °F 38.4 °F 30.28 in West 1.1 mph -999.0 mph 24 % 0 in
19:16 75.6 °F 40.2 °F 30.28 in Calm   -999.0 mph 28 % 0 in
19:31 69.6 °F 39.2 °F 30.28 in Calm   -999.0 mph 33 % 0 in
19:46 67.1 °F 39.3 °F 30.28 in Calm   -999.0 mph 36 % 0 in
20:01 63.0 °F 38.3 °F 30.28 in South 2.7 mph -999.0 mph 40 % 0 in
20:17 61.7 °F 38.4 °F 30.28 in Calm   -999.0 mph 42 % 0 in
20:32 60.6 °F 36.8 °F 30.28 in Calm   -999.0 mph 41 % 0 in
20:47 58.8 °F 34.5 °F 30.28 in SSW 2.7 mph -999.0 mph 40 % 0 in
21:03 58.3 °F 32.1 °F 30.28 in SSW 2.7 mph -999.0 mph 37 % 0 in
21:18 57.2 °F 29.8 °F 30.28 in South 2.7 mph -999.0 mph 35 % 0 in
21:33 57.6 °F 24.7 °F 30.29 in SSW 2.2 mph -999.0 mph 28 % 0 in
21:49 56.7 °F 23.9 °F 30.30 in SSW 2.7 mph -999.0 mph 28 % 0 in
22:04 57.0 °F 19.5 °F 30.29 in South 1.7 mph -999.0 mph 23 % 0 in
22:19 57.6 °F 16.8 °F 30.30 in SSW 2.2 mph -999.0 mph 20 % 0 in
22:34 57.4 °F 15.4 °F 30.30 in South 2.2 mph -999.0 mph 19 % 0 in
22:49 55.8 °F 18.5 °F 30.30 in South 2.2 mph -999.0 mph 23 % 0 in
23:05 55.8 °F 14.1 °F 30.30 in South 2.2 mph -999.0 mph 19 % 0 in
23:20 55.0 °F 14.6 °F 30.30 in Calm   -999.0 mph 20 % 0 in
23:36 53.6 °F 15.6 °F 30.30 in SSE 2.7 mph -999.0 mph 22 % 0 in
23:51 52.7 °F 13.8 °F 30.30 in SSE 2.2 mph -999.0 mph 21 % 0 in
Big Bear CA Weather
Compliments of Weather Underground - 1.5 mb